sensor_id;sensor_type;location;lat;lon;timestamp;pressure;altitude;pressure_sealevel;temperature;humidity
55191;BME280;41070;50.360;18.742;2023-03-01T00:01:00;99911.33;;;-2.98;76.57
55191;BME280;41070;50.360;18.742;2023-03-01T00:03:27;99911.93;;;-2.98;76.43
55191;BME280;41070;50.360;18.742;2023-03-01T00:05:54;99910.77;;;-2.99;76.53
55191;BME280;41070;50.360;18.742;2023-03-01T00:08:20;99907.61;;;-2.97;76.45
55191;BME280;41070;50.360;18.742;2023-03-01T00:10:46;99909.36;;;-2.96;76.50
55191;BME280;41070;50.360;18.742;2023-03-01T00:13:13;99909.53;;;-2.94;76.33
55191;BME280;41070;50.360;18.742;2023-03-01T00:15:40;99910.09;;;-2.93;76.21
55191;BME280;41070;50.360;18.742;2023-03-01T00:18:07;99908.05;;;-2.92;76.03
55191;BME280;41070;50.360;18.742;2023-03-01T00:20:34;99905.80;;;-2.91;75.75
55191;BME280;41070;50.360;18.742;2023-03-01T00:23:01;99904.34;;;-2.90;75.72
55191;BME280;41070;50.360;18.742;2023-03-01T00:25:27;99906.58;;;-2.89;75.85
55191;BME280;41070;50.360;18.742;2023-03-01T00:27:53;99905.82;;;-2.87;75.89
55191;BME280;41070;50.360;18.742;2023-03-01T00:30:19;99901.28;;;-2.85;75.96
55191;BME280;41070;50.360;18.742;2023-03-01T00:32:46;99902.40;;;-2.80;75.68
55191;BME280;41070;50.360;18.742;2023-03-01T00:35:12;99908.16;;;-2.80;75.60
55191;BME280;41070;50.360;18.742;2023-03-01T00:37:38;99907.66;;;-2.79;75.56
55191;BME280;41070;50.360;18.742;2023-03-01T00:40:07;99910.05;;;-2.77;75.64
55191;BME280;41070;50.360;18.742;2023-03-01T00:42:34;99910.80;;;-2.73;75.61
55191;BME280;41070;50.360;18.742;2023-03-01T00:45:00;99910.70;;;-2.69;75.73
55191;BME280;41070;50.360;18.742;2023-03-01T00:47:29;99912.54;;;-2.65;75.73
55191;BME280;41070;50.360;18.742;2023-03-01T00:49:55;99911.33;;;-2.61;75.66
55191;BME280;41070;50.360;18.742;2023-03-01T00:52:21;99909.23;;;-2.61;75.47
55191;BME280;41070;50.360;18.742;2023-03-01T00:54:48;99900.67;;;-2.64;75.27
55191;BME280;41070;50.360;18.742;2023-03-01T00:57:14;99900.43;;;-2.63;75.31
55191;BME280;41070;50.360;18.742;2023-03-01T00:59:40;99903.54;;;-2.64;75.14
55191;BME280;41070;50.360;18.742;2023-03-01T01:02:06;99903.11;;;-2.65;74.98
55191;BME280;41070;50.360;18.742;2023-03-01T01:04:33;99900.85;;;-2.65;75.03
55191;BME280;41070;50.360;18.742;2023-03-01T01:06:59;99894.84;;;-2.64;75.23
55191;BME280;41070;50.360;18.742;2023-03-01T01:09:25;99889.95;;;-2.63;74.90
55191;BME280;41070;50.360;18.742;2023-03-01T01:11:52;99896.52;;;-2.64;74.82
55191;BME280;41070;50.360;18.742;2023-03-01T01:14:19;99896.21;;;-2.68;74.81
55191;BME280;41070;50.360;18.742;2023-03-01T01:16:46;99898.47;;;-2.70;74.70
55191;BME280;41070;50.360;18.742;2023-03-01T01:19:12;99896.33;;;-2.76;74.53
55191;BME280;41070;50.360;18.742;2023-03-01T01:21:39;99896.91;;;-2.80;74.52
55191;BME280;41070;50.360;18.742;2023-03-01T01:24:09;99896.80;;;-2.84;74.52
55191;BME280;41070;50.360;18.742;2023-03-01T01:26:35;99891.77;;;-2.88;74.58
55191;BME280;41070;50.360;18.742;2023-03-01T01:29:03;99882.86;;;-2.88;74.59
55191;BME280;41070;50.360;18.742;2023-03-01T01:31:30;99881.23;;;-2.89;74.79
55191;BME280;41070;50.360;18.742;2023-03-01T01:33:58;99877.33;;;-2.87;75.05
55191;BME280;41070;50.360;18.742;2023-03-01T01:36:24;99878.82;;;-2.84;74.92
55191;BME280;41070;50.360;18.742;2023-03-01T01:38:51;99877.58;;;-2.84;74.98
55191;BME280;41070;50.360;18.742;2023-03-01T01:41:18;99874.61;;;-2.87;74.90
55191;BME280;41070;50.360;18.742;2023-03-01T01:44:08;99869.27;;;-2.89;75.08
55191;BME280;41070;50.360;18.742;2023-03-01T01:46:49;99863.61;;;-2.91;75.12
55191;BME280;41070;50.360;18.742;2023-03-01T01:49:27;99860.59;;;-2.92;75.56
55191;BME280;41070;50.360;18.742;2023-03-01T01:52:00;99858.88;;;-2.90;75.91
55191;BME280;41070;50.360;18.742;2023-03-01T01:54:35;99853.16;;;-2.88;75.90
55191;BME280;41070;50.360;18.742;2023-03-01T01:57:08;99855.27;;;-2.85;76.05
55191;BME280;41070;50.360;18.742;2023-03-01T01:59:36;99851.84;;;-2.86;76.02
55191;BME280;41070;50.360;18.742;2023-03-01T02:02:04;99850.29;;;-2.93;75.75
55191;BME280;41070;50.360;18.742;2023-03-01T02:04:32;99848.52;;;-3.02;75.80
55191;BME280;41070;50.360;18.742;2023-03-01T02:07:09;99849.20;;;-3.08;75.92
55191;BME280;41070;50.360;18.742;2023-03-01T02:09:42;99842.71;;;-3.14;76.16
55191;BME280;41070;50.360;18.742;2023-03-01T02:12:12;99844.89;;;-3.19;76.02
55191;BME280;41070;50.360;18.742;2023-03-01T02:14:39;99844.41;;;-3.24;76.03
55191;BME280;41070;50.360;18.742;2023-03-01T02:17:05;99842.54;;;-3.29;75.89
55191;BME280;41070;50.360;18.742;2023-03-01T02:19:39;99840.64;;;-3.31;76.25
55191;BME280;41070;50.360;18.742;2023-03-01T02:22:28;99839.48;;;-3.33;76.38
55191;BME280;41070;50.360;18.742;2023-03-01T02:30:43;99850.84;;;-3.47;76.37
55191;BME280;41070;50.360;18.742;2023-03-01T02:33:26;99859.02;;;-3.54;76.54
55191;BME280;41070;50.360;18.742;2023-03-01T02:35:54;99854.72;;;-3.60;76.88
55191;BME280;41070;50.360;18.742;2023-03-01T02:38:22;99855.16;;;-3.59;77.18
55191;BME280;41070;50.360;18.742;2023-03-01T02:40:51;99850.30;;;-3.57;77.05
55191;BME280;41070;50.360;18.742;2023-03-01T02:43:19;99852.86;;;-3.55;77.35
55191;BME280;41070;50.360;18.742;2023-03-01T02:45:50;99854.19;;;-3.52;77.28
55191;BME280;41070;50.360;18.742;2023-03-01T02:48:18;99858.70;;;-3.48;77.89
55191;BME280;41070;50.360;18.742;2023-03-01T02:53:29;99855.39;;;-3.41;77.57
55191;BME280;41070;50.360;18.742;2023-03-01T02:56:01;99856.24;;;-3.45;77.41
55191;BME280;41070;50.360;18.742;2023-03-01T02:58:28;99859.25;;;-3.47;77.46
55191;BME280;41070;50.360;18.742;2023-03-01T03:00:55;99862.02;;;-3.50;77.30
55191;BME280;41070;50.360;18.742;2023-03-01T03:03:22;99858.02;;;-3.54;77.42
55191;BME280;41070;50.360;18.742;2023-03-01T03:05:48;99857.30;;;-3.55;77.73
55191;BME280;41070;50.360;18.742;2023-03-01T03:08:15;99853.92;;;-3.57;77.68
55191;BME280;41070;50.360;18.742;2023-03-01T03:10:49;99860.25;;;-3.57;77.88
55191;BME280;41070;50.360;18.742;2023-03-01T03:13:16;99856.94;;;-3.59;77.98
55191;BME280;41070;50.360;18.742;2023-03-01T03:15:43;99851.64;;;-3.61;77.93
55191;BME280;41070;50.360;18.742;2023-03-01T03:18:16;99844.17;;;-3.63;77.73
55191;BME280;41070;50.360;18.742;2023-03-01T03:20:43;99850.45;;;-3.68;77.73
55191;BME280;41070;50.360;18.742;2023-03-01T03:23:11;99841.77;;;-3.68;78.36
55191;BME280;41070;50.360;18.742;2023-03-01T03:25:37;99838.21;;;-3.68;78.49
55191;BME280;41070;50.360;18.742;2023-03-01T03:28:05;99844.41;;;-3.71;78.31
55191;BME280;41070;50.360;18.742;2023-03-01T03:30:37;99839.55;;;-3.74;78.16
55191;BME280;41070;50.360;18.742;2023-03-01T03:33:06;99830.56;;;-3.78;78.30
55191;BME280;41070;50.360;18.742;2023-03-01T03:35:38;99825.49;;;-3.78;78.34
55191;BME280;41070;50.360;18.742;2023-03-01T03:38:06;99822.59;;;-3.77;78.86
55191;BME280;41070;50.360;18.742;2023-03-01T03:43:11;99824.73;;;-3.82;78.53
55191;BME280;41070;50.360;18.742;2023-03-01T03:45:38;99827.41;;;-3.88;78.62
55191;BME280;41070;50.360;18.742;2023-03-01T03:48:07;99824.48;;;-3.94;78.56
55191;BME280;41070;50.360;18.742;2023-03-01T03:50:36;99828.54;;;-3.98;78.95
55191;BME280;41070;50.360;18.742;2023-03-01T03:53:06;99830.86;;;-4.00;78.71
55191;BME280;41070;50.360;18.742;2023-03-01T03:55:34;99834.38;;;-4.02;78.89
55191;BME280;41070;50.360;18.742;2023-03-01T03:58:02;99830.65;;;-4.08;79.05
55191;BME280;41070;50.360;18.742;2023-03-01T04:00:34;99828.66;;;-4.14;79.26
55191;BME280;41070;50.360;18.742;2023-03-01T04:03:00;99827.45;;;-4.18;79.63
55191;BME280;41070;50.360;18.742;2023-03-01T04:05:27;99824.38;;;-4.20;79.63
55191;BME280;41070;50.360;18.742;2023-03-01T04:07:53;99823.42;;;-4.21;79.65
55191;BME280;41070;50.360;18.742;2023-03-01T04:10:31;99826.34;;;-4.24;79.59
55191;BME280;41070;50.360;18.742;2023-03-01T04:12:58;99821.33;;;-4.30;79.57
55191;BME280;41070;50.360;18.742;2023-03-01T04:15:25;99818.30;;;-4.29;79.63
55191;BME280;41070;50.360;18.742;2023-03-01T04:17:53;99825.19;;;-4.25;79.69
55191;BME280;41070;50.360;18.742;2023-03-01T04:20:26;99828.55;;;-4.20;79.86
55191;BME280;41070;50.360;18.742;2023-03-01T04:23:13;99828.16;;;-4.17;79.72
55191;BME280;41070;50.360;18.742;2023-03-01T04:25:52;99824.83;;;-4.12;80.21
55191;BME280;41070;50.360;18.742;2023-03-01T04:28:29;99824.08;;;-4.09;80.27
55191;BME280;41070;50.360;18.742;2023-03-01T04:30:57;99825.02;;;-4.06;79.86
55191;BME280;41070;50.360;18.742;2023-03-01T04:33:24;99825.66;;;-4.02;80.24
55191;BME280;41070;50.360;18.742;2023-03-01T04:35:51;99824.15;;;-4.00;80.12
55191;BME280;41070;50.360;18.742;2023-03-01T04:38:17;99819.09;;;-3.98;79.81
55191;BME280;41070;50.360;18.742;2023-03-01T04:40:44;99817.27;;;-4.00;80.11
55191;BME280;41070;50.360;18.742;2023-03-01T04:43:11;99821.01;;;-4.03;79.85
55191;BME280;41070;50.360;18.742;2023-03-01T04:45:39;99814.48;;;-4.02;79.73
55191;BME280;41070;50.360;18.742;2023-03-01T04:48:05;99817.91;;;-4.03;79.77
55191;BME280;41070;50.360;18.742;2023-03-01T04:50:32;99825.30;;;-4.06;79.83
55191;BME280;41070;50.360;18.742;2023-03-01T04:52:59;99823.95;;;-4.08;79.45
55191;BME280;41070;50.360;18.742;2023-03-01T04:55:26;99816.10;;;-4.09;79.60
55191;BME280;41070;50.360;18.742;2023-03-01T04:57:53;99810.64;;;-4.09;79.48
55191;BME280;41070;50.360;18.742;2023-03-01T05:00:20;99808.91;;;-4.12;79.61
55191;BME280;41070;50.360;18.742;2023-03-01T05:05:23;99802.11;;;-4.14;79.69
55191;BME280;41070;50.360;18.742;2023-03-01T05:07:57;99804.08;;;-4.13;79.58
55191;BME280;41070;50.360;18.742;2023-03-01T05:10:25;99803.30;;;-4.16;79.49
55191;BME280;41070;50.360;18.742;2023-03-01T05:12:52;99805.75;;;-4.16;79.18
55191;BME280;41070;50.360;18.742;2023-03-01T05:15:19;99801.85;;;-4.20;79.26
55191;BME280;41070;50.360;18.742;2023-03-01T05:17:48;99801.25;;;-4.25;79.40
55191;BME280;41070;50.360;18.742;2023-03-01T05:20:15;99799.54;;;-4.26;79.40
55191;BME280;41070;50.360;18.742;2023-03-01T05:22:42;99795.59;;;-4.25;79.57
55191;BME280;41070;50.360;18.742;2023-03-01T05:25:09;99793.33;;;-4.28;79.32
55191;BME280;41070;50.360;18.742;2023-03-01T05:27:35;99794.23;;;-4.27;79.76
55191;BME280;41070;50.360;18.742;2023-03-01T05:30:03;99791.06;;;-4.28;79.43
55191;BME280;41070;50.360;18.742;2023-03-01T05:32:44;99794.18;;;-4.29;79.71
55191;BME280;41070;50.360;18.742;2023-03-01T05:35:12;99793.02;;;-4.25;79.94
55191;BME280;41070;50.360;18.742;2023-03-01T05:37:40;99793.80;;;-4.24;79.87
55191;BME280;41070;50.360;18.742;2023-03-01T05:40:13;99792.79;;;-4.23;79.89
55191;BME280;41070;50.360;18.742;2023-03-01T05:42:46;99794.34;;;-4.20;79.74
55191;BME280;41070;50.360;18.742;2023-03-01T05:45:13;99801.52;;;-4.19;79.93
55191;BME280;41070;50.360;18.742;2023-03-01T05:47:42;99805.61;;;-4.26;79.85
55191;BME280;41070;50.360;18.742;2023-03-01T05:50:21;99805.81;;;-4.35;80.58
55191;BME280;41070;50.360;18.742;2023-03-01T05:52:51;99806.05;;;-4.35;80.74
55191;BME280;41070;50.360;18.742;2023-03-01T05:55:20;99812.96;;;-4.31;81.00
55191;BME280;41070;50.360;18.742;2023-03-01T05:57:47;99813.54;;;-4.28;80.62
55191;BME280;41070;50.360;18.742;2023-03-01T06:00:22;99818.25;;;-4.19;80.84
55191;BME280;41070;50.360;18.742;2023-03-01T06:02:49;99820.20;;;-4.11;80.85
55191;BME280;41070;50.360;18.742;2023-03-01T06:05:18;99819.40;;;-4.04;80.93
55191;BME280;41070;50.360;18.742;2023-03-01T06:07:46;99819.07;;;-3.95;80.97
55191;BME280;41070;50.360;18.742;2023-03-01T06:10:13;99820.33;;;-3.88;81.06
55191;BME280;41070;50.360;18.742;2023-03-01T06:12:41;99818.17;;;-3.78;81.10
55191;BME280;41070;50.360;18.742;2023-03-01T06:15:09;99814.01;;;-3.69;81.23
55191;BME280;41070;50.360;18.742;2023-03-01T06:17:38;99814.52;;;-3.64;81.12
55191;BME280;41070;50.360;18.742;2023-03-01T06:20:17;99814.42;;;-3.56;81.34
55191;BME280;41070;50.360;18.742;2023-03-01T06:22:46;99820.16;;;-3.44;81.13
55191;BME280;41070;50.360;18.742;2023-03-01T06:25:16;99825.04;;;-3.38;80.82
55191;BME280;41070;50.360;18.742;2023-03-01T06:27:43;99820.30;;;-3.29;80.83
55191;BME280;41070;50.360;18.742;2023-03-01T06:30:11;99827.52;;;-3.21;80.71
55191;BME280;41070;50.360;18.742;2023-03-01T06:32:38;99828.58;;;-3.15;80.68
55191;BME280;41070;50.360;18.742;2023-03-01T06:35:11;99828.80;;;-3.10;80.52
55191;BME280;41070;50.360;18.742;2023-03-01T06:37:38;99827.80;;;-3.04;80.69
55191;BME280;41070;50.360;18.742;2023-03-01T06:40:05;99829.92;;;-2.98;80.76
55191;BME280;41070;50.360;18.742;2023-03-01T06:42:53;99830.95;;;-2.91;80.70
55191;BME280;41070;50.360;18.742;2023-03-01T06:45:20;99830.26;;;-2.84;80.59
55191;BME280;41070;50.360;18.742;2023-03-01T06:47:47;99829.89;;;-2.78;80.97
55191;BME280;41070;50.360;18.742;2023-03-01T06:50:14;99824.66;;;-2.70;80.71
55191;BME280;41070;50.360;18.742;2023-03-01T06:52:41;99822.48;;;-2.68;81.08
55191;BME280;41070;50.360;18.742;2023-03-01T06:55:09;99820.14;;;-2.60;80.90
55191;BME280;41070;50.360;18.742;2023-03-01T06:57:36;99822.33;;;-2.52;81.08
55191;BME280;41070;50.360;18.742;2023-03-01T07:00:07;99816.80;;;-2.45;81.01
55191;BME280;41070;50.360;18.742;2023-03-01T07:02:34;99816.08;;;-2.37;81.12
55191;BME280;41070;50.360;18.742;2023-03-01T07:05:00;99817.09;;;-2.30;81.09
55191;BME280;41070;50.360;18.742;2023-03-01T07:07:27;99814.89;;;-2.25;80.84
55191;BME280;41070;50.360;18.742;2023-03-01T07:09:53;99815.55;;;-2.17;80.87
55191;BME280;41070;50.360;18.742;2023-03-01T07:12:19;99814.55;;;-2.09;80.82
55191;BME280;41070;50.360;18.742;2023-03-01T07:14:46;99814.63;;;-2.04;80.75
55191;BME280;41070;50.360;18.742;2023-03-01T07:17:12;99811.52;;;-1.97;80.91
55191;BME280;41070;50.360;18.742;2023-03-01T07:19:39;99805.70;;;-1.89;81.15
55191;BME280;41070;50.360;18.742;2023-03-01T07:22:05;99810.65;;;-1.78;80.76
55191;BME280;41070;50.360;18.742;2023-03-01T07:24:33;99809.39;;;-1.76;80.60
55191;BME280;41070;50.360;18.742;2023-03-01T07:27:00;99796.16;;;-1.70;80.36
55191;BME280;41070;50.360;18.742;2023-03-01T07:29:26;99797.85;;;-1.68;80.03
55191;BME280;41070;50.360;18.742;2023-03-01T07:31:54;99791.23;;;-1.65;80.18
55191;BME280;41070;50.360;18.742;2023-03-01T07:34:20;99789.88;;;-1.59;80.25
55191;BME280;41070;50.360;18.742;2023-03-01T07:36:47;99790.44;;;-1.54;79.83
55191;BME280;41070;50.360;18.742;2023-03-01T07:39:13;99793.43;;;-1.50;79.61
55191;BME280;41070;50.360;18.742;2023-03-01T07:41:40;99800.40;;;-1.45;79.69
55191;BME280;41070;50.360;18.742;2023-03-01T07:44:06;99803.02;;;-1.40;79.62
55191;BME280;41070;50.360;18.742;2023-03-01T07:46:32;99803.63;;;-1.33;79.55
55191;BME280;41070;50.360;18.742;2023-03-01T07:48:58;99804.69;;;-1.26;79.62
55191;BME280;41070;50.360;18.742;2023-03-01T07:51:25;99801.77;;;-1.20;79.62
55191;BME280;41070;50.360;18.742;2023-03-01T07:53:51;99801.05;;;-1.12;79.24
55191;BME280;41070;50.360;18.742;2023-03-01T07:56:17;99802.55;;;-1.05;79.09
55191;BME280;41070;50.360;18.742;2023-03-01T07:58:45;99799.71;;;-1.02;78.42
55191;BME280;41070;50.360;18.742;2023-03-01T08:01:16;99796.52;;;-0.95;78.58
55191;BME280;41070;50.360;18.742;2023-03-01T08:03:43;99798.71;;;-0.89;77.79
55191;BME280;41070;50.360;18.742;2023-03-01T08:06:53;99791.26;;;-0.95;77.68
55191;BME280;41070;50.360;18.742;2023-03-01T08:09:22;99794.77;;;-0.96;77.89
55191;BME280;41070;50.360;18.742;2023-03-01T08:11:48;99789.02;;;-0.98;77.86
55191;BME280;41070;50.360;18.742;2023-03-01T08:14:14;99792.13;;;-0.96;77.70
55191;BME280;41070;50.360;18.742;2023-03-01T08:16:41;99792.60;;;-0.94;77.25
55191;BME280;41070;50.360;18.742;2023-03-01T08:19:09;99796.07;;;-0.90;77.22
55191;BME280;41070;50.360;18.742;2023-03-01T08:21:37;99792.35;;;-0.83;77.10
55191;BME280;41070;50.360;18.742;2023-03-01T08:24:04;99790.77;;;-0.74;77.08
55191;BME280;41070;50.360;18.742;2023-03-01T08:26:33;99786.48;;;-0.67;76.33
55191;BME280;41070;50.360;18.742;2023-03-01T08:29:00;99783.69;;;-0.60;76.96
55191;BME280;41070;50.360;18.742;2023-03-01T08:31:31;99786.02;;;-0.53;76.46
55191;BME280;41070;50.360;18.742;2023-03-01T08:34:02;99782.02;;;-0.45;76.71
55191;BME280;41070;50.360;18.742;2023-03-01T08:36:35;99782.05;;;-0.34;75.84
55191;BME280;41070;50.360;18.742;2023-03-01T08:39:03;99783.52;;;-0.22;75.63
55191;BME280;41070;50.360;18.742;2023-03-01T08:41:30;99785.85;;;-0.13;75.36
55191;BME280;41070;50.360;18.742;2023-03-01T08:43:58;99780.95;;;-0.09;74.65
55191;BME280;41070;50.360;18.742;2023-03-01T08:46:34;99776.41;;;-0.07;74.05
55191;BME280;41070;50.360;18.742;2023-03-01T08:49:28;99777.38;;;-0.02;73.89
55191;BME280;41070;50.360;18.742;2023-03-01T08:51:55;99778.19;;;0.04;73.27
55191;BME280;41070;50.360;18.742;2023-03-01T08:54:21;99774.54;;;0.11;72.69
55191;BME280;41070;50.360;18.742;2023-03-01T08:56:48;99774.23;;;0.17;72.51
55191;BME280;41070;50.360;18.742;2023-03-01T08:59:16;99776.30;;;0.23;72.39
55191;BME280;41070;50.360;18.742;2023-03-01T09:01:45;99771.87;;;0.30;72.09
55191;BME280;41070;50.360;18.742;2023-03-01T09:04:11;99770.68;;;0.40;71.63
55191;BME280;41070;50.360;18.742;2023-03-01T09:06:38;99769.04;;;0.48;71.30
55191;BME280;41070;50.360;18.742;2023-03-01T09:09:05;99768.17;;;0.51;71.19
55191;BME280;41070;50.360;18.742;2023-03-01T09:11:32;99766.44;;;0.53;71.10
55191;BME280;41070;50.360;18.742;2023-03-01T09:13:59;99768.60;;;0.56;71.42
55191;BME280;41070;50.360;18.742;2023-03-01T09:16:25;99768.29;;;0.63;71.34
55191;BME280;41070;50.360;18.742;2023-03-01T09:18:53;99770.39;;;0.72;71.10
55191;BME280;41070;50.360;18.742;2023-03-01T09:21:22;99766.77;;;0.80;70.59
55191;BME280;41070;50.360;18.742;2023-03-01T09:23:50;99764.80;;;0.88;70.37
55191;BME280;41070;50.360;18.742;2023-03-01T09:26:20;99759.52;;;0.93;70.85
55191;BME280;41070;50.360;18.742;2023-03-01T09:28:52;99757.25;;;1.04;70.49
55191;BME280;41070;50.360;18.742;2023-03-01T09:31:21;99759.83;;;1.15;69.72
55191;BME280;41070;50.360;18.742;2023-03-01T09:33:50;99759.48;;;1.24;69.38
55191;BME280;41070;50.360;18.742;2023-03-01T09:36:20;99761.77;;;1.29;68.18
55191;BME280;41070;50.360;18.742;2023-03-01T09:38:48;99768.83;;;1.33;68.12
55191;BME280;41070;50.360;18.742;2023-03-01T09:43:47;99762.77;;;1.44;67.53
55191;BME280;41070;50.360;18.742;2023-03-01T09:46:15;99758.85;;;1.47;67.27
55191;BME280;41070;50.360;18.742;2023-03-01T09:49:01;99757.90;;;1.54;67.50
55191;BME280;41070;50.360;18.742;2023-03-01T09:51:32;99753.52;;;1.62;66.59
55191;BME280;41070;50.360;18.742;2023-03-01T09:54:02;99748.48;;;1.68;66.75
55191;BME280;41070;50.360;18.742;2023-03-01T09:56:41;99742.02;;;1.71;66.79
55191;BME280;41070;50.360;18.742;2023-03-01T09:59:23;99750.59;;;1.76;66.05
55191;BME280;41070;50.360;18.742;2023-03-01T10:02:17;99750.73;;;1.83;65.68
55191;BME280;41070;50.360;18.742;2023-03-01T10:04:50;99746.64;;;1.87;64.97
55191;BME280;41070;50.360;18.742;2023-03-01T10:07:28;99744.26;;;1.84;64.27
55191;BME280;41070;50.360;18.742;2023-03-01T10:09:58;99746.16;;;1.86;64.79
55191;BME280;41070;50.360;18.742;2023-03-01T10:12:30;99744.17;;;1.89;64.56
55191;BME280;41070;50.360;18.742;2023-03-01T10:15:20;99748.32;;;1.95;64.28
55191;BME280;41070;50.360;18.742;2023-03-01T10:18:00;99747.88;;;2.02;63.85
55191;BME280;41070;50.360;18.742;2023-03-01T10:21:01;99747.14;;;2.03;63.08
55191;BME280;41070;50.360;18.742;2023-03-01T10:23:35;99751.04;;;2.02;62.46
55191;BME280;41070;50.360;18.742;2023-03-01T10:26:53;99748.58;;;2.06;63.18
55191;BME280;41070;50.360;18.742;2023-03-01T10:29:18;99746.73;;;2.16;62.25
55191;BME280;41070;50.360;18.742;2023-03-01T10:31:53;99743.09;;;2.20;61.83
55191;BME280;41070;50.360;18.742;2023-03-01T10:34:28;99738.83;;;2.25;62.29
55191;BME280;41070;50.360;18.742;2023-03-01T10:40:08;99740.04;;;2.40;61.84
55191;BME280;41070;50.360;18.742;2023-03-01T10:42:47;99742.23;;;2.50;62.14
55191;BME280;41070;50.360;18.742;2023-03-01T10:45:58;99738.85;;;2.51;60.39
55191;BME280;41070;50.360;18.742;2023-03-01T10:48:26;99737.58;;;2.48;60.17
55191;BME280;41070;50.360;18.742;2023-03-01T10:56:07;99729.76;;;2.68;60.17
55191;BME280;41070;50.360;18.742;2023-03-01T10:58:36;99721.30;;;2.68;59.49
55191;BME280;41070;50.360;18.742;2023-03-01T11:01:33;99720.77;;;2.71;58.63
55191;BME280;41070;50.360;18.742;2023-03-01T11:04:14;99719.19;;;2.75;59.60
55191;BME280;41070;50.360;18.742;2023-03-01T11:06:41;99710.89;;;2.85;59.47
55191;BME280;41070;50.360;18.742;2023-03-01T11:13:08;99699.28;;;2.90;58.04
55191;BME280;41070;50.360;18.742;2023-03-01T11:15:40;99699.59;;;2.94;57.93
55191;BME280;41070;50.360;18.742;2023-03-01T11:18:19;99703.88;;;2.99;57.81
55191;BME280;41070;50.360;18.742;2023-03-01T11:20:55;99699.59;;;3.05;57.95
55191;BME280;41070;50.360;18.742;2023-03-01T11:23:23;99696.73;;;3.10;58.00
55191;BME280;41070;50.360;18.742;2023-03-01T11:25:59;99697.38;;;3.13;58.48
55191;BME280;41070;50.360;18.742;2023-03-01T11:29:29;99696.14;;;3.33;58.95
55191;BME280;41070;50.360;18.742;2023-03-01T11:32:00;99693.78;;;3.45;57.94
55191;BME280;41070;50.360;18.742;2023-03-01T11:34:38;99689.00;;;3.50;58.44
55191;BME280;41070;50.360;18.742;2023-03-01T11:37:34;99681.95;;;3.54;57.74
55191;BME280;41070;50.360;18.742;2023-03-01T11:40:40;99686.81;;;3.60;58.15
55191;BME280;41070;50.360;18.742;2023-03-01T11:43:23;99680.50;;;3.63;58.00
55191;BME280;41070;50.360;18.742;2023-03-01T11:52:24;99689.16;;;3.71;57.95
55191;BME280;41070;50.360;18.742;2023-03-01T12:01:59;99675.47;;;3.93;56.42
55191;BME280;41070;50.360;18.742;2023-03-01T12:11:36;99651.15;;;4.09;56.72
55191;BME280;41070;50.360;18.742;2023-03-01T12:14:52;99649.16;;;4.14;56.43
55191;BME280;41070;50.360;18.742;2023-03-01T12:21:10;99636.59;;;4.18;55.20
55191;BME280;41070;50.360;18.742;2023-03-01T16:14:26;99522.00;;;3.65;46.82
55191;BME280;41070;50.360;18.742;2023-03-01T16:16:53;99527.64;;;3.50;46.99
55191;BME280;41070;50.360;18.742;2023-03-01T16:19:19;99525.09;;;3.38;47.82
55191;BME280;41070;50.360;18.742;2023-03-01T16:21:46;99522.10;;;3.22;48.26
55191;BME280;41070;50.360;18.742;2023-03-01T16:24:14;99526.96;;;3.09;48.75
55191;BME280;41070;50.360;18.742;2023-03-01T16:26:41;99530.45;;;2.92;49.36
55191;BME280;41070;50.360;18.742;2023-03-01T16:29:08;99537.71;;;2.78;49.74
55191;BME280;41070;50.360;18.742;2023-03-01T16:31:35;99537.89;;;2.66;50.33
55191;BME280;41070;50.360;18.742;2023-03-01T16:34:02;99539.06;;;2.52;50.79
55191;BME280;41070;50.360;18.742;2023-03-01T16:36:28;99537.23;;;2.37;51.09
55191;BME280;41070;50.360;18.742;2023-03-01T16:39:00;99538.06;;;2.23;51.63
55191;BME280;41070;50.360;18.742;2023-03-01T16:42:46;99541.86;;;2.12;51.99
55191;BME280;41070;50.360;18.742;2023-03-01T16:45:12;99544.23;;;2.09;51.89
55191;BME280;41070;50.360;18.742;2023-03-01T16:47:39;99546.93;;;2.09;52.22
55191;BME280;41070;50.360;18.742;2023-03-01T16:50:05;99542.60;;;2.08;52.20
55191;BME280;41070;50.360;18.742;2023-03-01T16:52:32;99540.20;;;2.04;52.65
55191;BME280;41070;50.360;18.742;2023-03-01T16:54:59;99543.00;;;1.97;52.98
55191;BME280;41070;50.360;18.742;2023-03-01T16:57:25;99543.52;;;1.91;53.01
55191;BME280;41070;50.360;18.742;2023-03-01T16:59:52;99544.66;;;1.88;53.03
55191;BME280;41070;50.360;18.742;2023-03-01T17:02:19;99543.03;;;1.84;53.21
55191;BME280;41070;50.360;18.742;2023-03-01T17:04:52;99540.06;;;1.78;53.62
55191;BME280;41070;50.360;18.742;2023-03-01T17:07:22;99543.02;;;1.71;53.98
55191;BME280;41070;50.360;18.742;2023-03-01T17:09:48;99544.14;;;1.65;54.27
55191;BME280;41070;50.360;18.742;2023-03-01T17:12:15;99546.61;;;1.57;54.38
55191;BME280;41070;50.360;18.742;2023-03-01T17:14:42;99551.12;;;1.51;54.43
55191;BME280;41070;50.360;18.742;2023-03-01T17:17:10;99548.35;;;1.47;54.70
55191;BME280;41070;50.360;18.742;2023-03-01T17:20:18;99549.34;;;1.43;54.92
55191;BME280;41070;50.360;18.742;2023-03-01T17:22:55;99548.20;;;1.34;55.23
55191;BME280;41070;50.360;18.742;2023-03-01T17:25:21;99547.27;;;1.28;55.58
55191;BME280;41070;50.360;18.742;2023-03-01T17:27:48;99547.46;;;1.22;55.51
55191;BME280;41070;50.360;18.742;2023-03-01T17:30:14;99548.23;;;1.16;55.90
55191;BME280;41070;50.360;18.742;2023-03-01T17:32:41;99552.79;;;1.11;55.83
55191;BME280;41070;50.360;18.742;2023-03-01T17:35:22;99559.88;;;1.06;56.10
55191;BME280;41070;50.360;18.742;2023-03-01T17:37:49;99558.58;;;1.01;56.10
55191;BME280;41070;50.360;18.742;2023-03-01T17:40:15;99560.15;;;0.97;55.92
55191;BME280;41070;50.360;18.742;2023-03-01T17:42:41;99558.23;;;0.93;56.15
55191;BME280;41070;50.360;18.742;2023-03-01T17:45:08;99552.66;;;0.87;56.28
55191;BME280;41070;50.360;18.742;2023-03-01T17:47:34;99550.89;;;0.84;55.94
55191;BME280;41070;50.360;18.742;2023-03-01T17:50:01;99547.30;;;0.82;56.09
55191;BME280;41070;50.360;18.742;2023-03-01T17:52:33;99548.66;;;0.82;55.54
55191;BME280;41070;50.360;18.742;2023-03-01T17:55:12;99545.77;;;0.82;55.72